createdAt,value
2023-04-21T00:00:10.498Z,85435.34
2023-04-21T00:02:40.102Z,85423.06
2023-04-21T00:05:12.958Z,85417.59
2023-04-21T00:07:41.848Z,85407.97
2023-04-21T00:10:10.038Z,85431.28
2023-04-21T00:12:37.406Z,85422.50
2023-04-21T00:15:07.862Z,85447.16
2023-04-21T00:17:34.942Z,85431.34
2023-04-21T00:20:02.038Z,85395.00
2023-04-21T00:22:29.134Z,85417.63
2023-04-21T00:24:56.094Z,85365.06
2023-04-21T00:27:23.026Z,85402.69
2023-04-21T00:29:50.202Z,85402.66
2023-04-21T00:32:17.611Z,85445.03
2023-04-21T00:34:44.708Z,85400.00
2023-04-21T00:37:12.385Z,85378.88
2023-04-21T00:39:39.858Z,85433.03
2023-04-21T00:42:16.211Z,85439.69
2023-04-21T00:44:43.504Z,85431.47
2023-04-21T00:47:10.777Z,85443.97
2023-04-21T00:49:38.185Z,85408.31
2023-04-21T00:52:06.623Z,85432.25
2023-04-21T00:54:35.878Z,85421.44
2023-04-21T00:57:03.885Z,85431.69
2023-04-21T00:59:31.196Z,85442.72
2023-04-21T01:01:58.319Z,85423.63
2023-04-21T01:04:25.780Z,85390.19
2023-04-21T01:06:53.064Z,85389.50
2023-04-21T01:09:21.287Z,85384.78
2023-04-21T01:12:12.208Z,85387.53
2023-04-21T01:14:40.917Z,85439.47
2023-04-21T01:17:08.875Z,85372.44
2023-04-21T01:19:40.595Z,85429.81
2023-04-21T01:22:12.799Z,85399.06
2023-04-21T01:24:46.101Z,85313.50
2023-04-21T01:27:16.757Z,85360.72
2023-04-21T01:29:48.445Z,85391.56
2023-04-21T01:32:19.261Z,85426.38
2023-04-21T01:34:47.871Z,85396.28
2023-04-21T01:37:17.658Z,85394.28
2023-04-21T01:39:52.486Z,85385.38
2023-04-21T01:42:22.530Z,85430.59
2023-04-21T01:44:49.881Z,85416.88
2023-04-21T01:47:18.679Z,85387.41
2023-04-21T01:49:46.131Z,85367.56
2023-04-21T01:52:13.280Z,85401.72
2023-04-21T01:54:40.479Z,85404.44
2023-04-21T01:57:07.814Z,85364.81
2023-04-21T01:59:35.388Z,85416.03
2023-04-21T02:02:03.306Z,85321.03
2023-04-21T02:04:33.478Z,85351.06
2023-04-21T02:07:00.918Z,85356.56
2023-04-21T02:09:27.992Z,85371.03
2023-04-21T02:11:58.259Z,85344.34
2023-04-21T02:14:26.201Z,85396.16
2023-04-21T02:16:53.573Z,85415.44
2023-04-21T02:19:22.404Z,85344.22
2023-04-21T02:21:49.481Z,85372.88
2023-04-21T02:24:16.610Z,85413.88
2023-04-21T02:26:43.739Z,85305.25
2023-04-21T02:29:10.854Z,85394.72
2023-04-21T02:31:53.837Z,85361.94
2023-04-21T02:34:26.040Z,85371.63
2023-04-21T02:36:53.178Z,85420.88
2023-04-21T02:39:20.486Z,85346.94
2023-04-21T02:41:47.757Z,85344.22
2023-04-21T02:44:14.919Z,85415.31
2023-04-21T02:46:42.278Z,85333.94
2023-04-21T02:49:10.809Z,85334.72
2023-04-21T02:51:38.020Z,85412.56
2023-04-21T02:54:05.226Z,85360.63
2023-04-21T02:56:34.717Z,85347.63
2023-04-21T02:59:01.927Z,85386.50
2023-04-21T03:01:28.977Z,85327.75
2023-04-21T03:03:56.178Z,85398.13
2023-04-21T03:06:23.195Z,85380.47
2023-04-21T03:08:50.347Z,85382.44
2023-04-21T03:11:17.366Z,85355.06
2023-04-21T03:13:45.775Z,85348.22
2023-04-21T03:16:13.634Z,85294.94
2023-04-21T03:18:40.753Z,85407.22
2023-04-21T03:21:07.831Z,85329.31
2023-04-21T03:23:35.709Z,85368.94
2023-04-21T03:26:07.653Z,85380.66
2023-04-21T03:28:35.201Z,85403.19
2023-04-21T03:31:03.185Z,85411.47
2023-04-21T03:33:30.401Z,85380.75
2023-04-21T03:35:57.484Z,85381.50
2023-04-21T03:38:24.569Z,85371.31
2023-04-21T03:40:51.633Z,85417.16
2023-04-21T03:43:19.231Z,85415.72
2023-04-21T03:45:46.562Z,85429.50
2023-04-21T03:48:13.610Z,85362.50
2023-04-21T03:50:40.777Z,85414.50
2023-04-21T03:53:07.876Z,85407.75
2023-04-21T03:55:37.871Z,85432.38
2023-04-21T03:58:04.953Z,85363.38
2023-04-21T04:00:32.008Z,85425.69
2023-04-21T04:02:59.050Z,85419.47
2023-04-21T04:05:26.464Z,85318.28
2023-04-21T04:07:53.578Z,85418.84
2023-04-21T04:10:21.242Z,85395.69
2023-04-21T04:12:48.436Z,85399.72
2023-04-21T04:15:15.812Z,85342.28
2023-04-21T04:17:43.263Z,85428.47
2023-04-21T04:20:10.484Z,85383.25
2023-04-21T04:22:37.677Z,85429.72
2023-04-21T04:25:05.629Z,85424.91
2023-04-21T04:27:33.448Z,85346.25
2023-04-21T04:30:00.590Z,85331.22
2023-04-21T04:32:30.412Z,85436.59
2023-04-21T04:34:57.514Z,85346.28
2023-04-21T04:37:25.562Z,85335.34
2023-04-21T04:39:55.449Z,85385.97
2023-04-21T04:42:22.637Z,85407.22
2023-04-21T04:44:53.194Z,85370.94
2023-04-21T04:47:20.326Z,85436.56
2023-04-21T04:49:47.397Z,85421.44
2023-04-21T04:52:14.408Z,85376.38
2023-04-21T04:54:41.345Z,85409.13
2023-04-21T04:57:08.296Z,85326.34
2023-04-21T04:59:36.786Z,85370.13
2023-04-21T05:02:04.369Z,85424.81
2023-04-21T05:04:32.153Z,85423.47
2023-04-21T05:06:59.278Z,85404.91
2023-04-21T05:09:26.320Z,85418.44
2023-04-21T05:11:53.335Z,85423.94
2023-04-21T05:14:20.686Z,85372.69
2023-04-21T05:16:47.992Z,85385.63
2023-04-21T05:19:17.376Z,85370.47
2023-04-21T05:21:45.638Z,85425.09
2023-04-21T05:24:12.742Z,85384.66
2023-04-21T05:26:39.792Z,85394.91
2023-04-21T05:29:07.166Z,85377.00
2023-04-21T05:31:35.022Z,85385.03
2023-04-21T05:34:02.260Z,85406.13
2023-04-21T05:36:30.673Z,85411.53
2023-04-21T05:38:57.632Z,85431.22
2023-04-21T05:41:24.787Z,85235.16
2023-04-21T05:43:52.144Z,85425.59
2023-04-21T05:46:19.377Z,85381.78
2023-04-21T05:48:46.480Z,85432.19
2023-04-21T05:51:15.710Z,85389.81
2023-04-21T05:53:44.069Z,85421.03
2023-04-21T05:56:12.069Z,85356.75
2023-04-21T05:58:39.407Z,85406.59
2023-04-21T06:01:09.491Z,85342.84
2023-04-21T06:03:37.381Z,85344.94
2023-04-21T06:06:07.294Z,85390.47
2023-04-21T06:08:34.471Z,85431.13
2023-04-21T06:11:01.675Z,85436.59
2023-04-21T06:13:29.002Z,85410.63
2023-04-21T06:15:56.254Z,85405.50
2023-04-21T06:18:24.331Z,85317.34
2023-04-21T06:20:52.808Z,85450.25
2023-04-21T06:23:20.304Z,85445.34
2023-04-21T06:25:47.719Z,85345.50
2023-04-21T06:28:14.886Z,85372.66
2023-04-21T06:30:42.005Z,85411.28
2023-04-21T06:33:09.569Z,85418.63
2023-04-21T06:35:36.764Z,85396.88
2023-04-21T06:38:03.975Z,85399.28
2023-04-21T06:40:30.964Z,85416.16
2023-04-21T06:42:58.030Z,85448.09
2023-04-21T06:45:25.279Z,85379.72
2023-04-21T06:47:52.368Z,85380.94
2023-04-21T06:50:19.449Z,85447.94
2023-04-21T06:52:46.446Z,85372.97
2023-04-21T06:55:13.596Z,85428.59
2023-04-21T06:57:40.735Z,85421.75
2023-04-21T07:00:08.683Z,85392.41
2023-04-21T07:02:36.054Z,85450.81
2023-04-21T07:05:03.348Z,85414.53
2023-04-21T07:07:30.335Z,85339.38
2023-04-21T07:09:57.379Z,85393.22
2023-04-21T07:12:24.904Z,85372.53
2023-04-21T07:14:52.057Z,85458.41
2023-04-21T07:17:19.079Z,85407.00
2023-04-21T07:19:46.539Z,85440.22
2023-04-21T07:22:13.581Z,85443.22
2023-04-21T07:24:40.680Z,85450.34
2023-04-21T07:27:07.902Z,85459.66
2023-04-21T07:29:34.955Z,85407.81
2023-04-21T07:32:02.092Z,85325.53
2023-04-21T07:34:29.161Z,85477.53
2023-04-21T07:36:56.720Z,85463.72
2023-04-21T07:39:23.768Z,85379.66
2023-04-21T07:41:50.709Z,85440.63
2023-04-21T07:44:17.724Z,85476.41
2023-04-21T07:46:44.805Z,85458.94
2023-04-21T07:49:11.976Z,85421.25
2023-04-21T07:51:40.048Z,85455.50
2023-04-21T07:54:07.128Z,85472.41
2023-04-21T07:56:34.150Z,85473.09
2023-04-21T07:59:01.319Z,85408.44
2023-04-21T08:01:28.366Z,85454.56
2023-04-21T08:03:55.533Z,85411.06
2023-04-21T08:06:22.954Z,85442.66
2023-04-21T08:08:50.557Z,85460.41
2023-04-21T08:11:17.713Z,85279.25
2023-04-21T08:13:44.755Z,85433.25
2023-04-21T08:16:11.937Z,85481.09
2023-04-21T08:18:39.137Z,85355.75
2023-04-21T08:21:06.496Z,85429.25
2023-04-21T08:23:33.728Z,85410.06
2023-04-21T08:26:02.316Z,85402.75
2023-04-21T08:28:29.381Z,85489.38
2023-04-21T08:30:56.513Z,85420.03
2023-04-21T08:33:23.631Z,85450.03
2023-04-21T08:36:02.335Z,85469.31
2023-04-21T08:38:32.879Z,85469.34
2023-04-21T08:41:00.261Z,85476.50
2023-04-21T08:43:29.286Z,85458.03
2023-04-21T08:45:56.873Z,85451.72
2023-04-21T08:48:25.721Z,85420.50
2023-04-21T08:50:54.004Z,85481.81
2023-04-21T08:53:21.925Z,85491.56
2023-04-21T08:56:07.495Z,85426.69
2023-04-21T08:58:41.072Z,85464.47
2023-04-21T09:01:08.276Z,85371.47
2023-04-21T09:03:35.673Z,85436.78
2023-04-21T09:06:10.860Z,85468.72
2023-04-21T09:08:43.304Z,85490.97
2023-04-21T09:11:14.817Z,85493.31
2023-04-21T09:13:43.347Z,85444.53
2023-04-21T09:16:21.994Z,85478.72
2023-04-21T09:18:50.480Z,85455.72
2023-04-21T09:21:19.295Z,85394.47
2023-04-21T09:23:50.483Z,85477.50
2023-04-21T09:26:19.085Z,85479.59
2023-04-21T09:28:48.175Z,85478.72
2023-04-21T09:31:17.293Z,85474.63
2023-04-21T09:33:58.678Z,85468.97
2023-04-21T09:36:28.737Z,85437.00
2023-04-21T09:41:33.113Z,85465.97
2023-04-21T09:44:05.107Z,85450.69
2023-04-21T09:46:37.004Z,85414.69
2023-04-21T09:49:05.473Z,85459.44
2023-04-21T09:51:49.161Z,85401.41
2023-04-21T09:56:58.281Z,85452.06
2023-04-21T09:59:41.077Z,85399.63
2023-04-21T10:02:09.950Z,85452.25
2023-04-21T10:04:38.908Z,85287.56
2023-04-21T10:07:06.881Z,85409.94
2023-04-21T10:09:40.712Z,85426.56
2023-04-21T10:12:09.671Z,85379.47
2023-04-21T10:14:37.117Z,85447.38
2023-04-21T10:17:09.355Z,85441.53
2023-04-21T10:19:40.590Z,85445.53
2023-04-21T10:22:10.121Z,85399.09
2023-04-21T10:24:41.694Z,85398.53
2023-04-21T10:27:12.910Z,85402.91
2023-04-21T10:29:55.728Z,85407.09
2023-04-21T10:33:03.535Z,85409.31
2023-04-21T10:36:04.947Z,85427.13
2023-04-21T10:38:44.623Z,85399.03
2023-04-21T10:41:28.971Z,85435.53
2023-04-21T10:44:19.997Z,85367.63
2023-04-21T10:46:52.400Z,85358.97
2023-04-21T10:49:23.662Z,85423.13
2023-04-21T10:51:59.726Z,85425.09
2023-04-21T10:54:28.562Z,85412.34
2023-04-21T10:56:57.160Z,85415.59
2023-04-21T10:59:25.786Z,85423.81
2023-04-21T11:01:53.013Z,85363.63
2023-04-21T11:04:22.849Z,85421.63
2023-04-21T11:07:16.655Z,85428.34
2023-04-21T11:09:45.133Z,85390.19
2023-04-21T11:12:14.360Z,85422.56
2023-04-21T11:14:43.573Z,85386.19
2023-04-21T11:17:19.250Z,85401.75
2023-04-21T11:19:47.787Z,85379.69
2023-04-21T11:22:17.190Z,85404.00
2023-04-21T11:24:49.506Z,85370.84
2023-04-21T11:27:18.006Z,85414.81
2023-04-21T11:29:46.589Z,85420.41
2023-04-21T11:32:14.309Z,85358.47
2023-04-21T11:34:41.881Z,85417.16
2023-04-21T11:37:10.825Z,85379.13
2023-04-21T11:39:41.585Z,85369.75
2023-04-21T11:42:08.705Z,85436.31
2023-04-21T11:44:44.611Z,85420.00
2023-04-21T11:47:28.291Z,85387.81
2023-04-21T11:49:57.702Z,85416.34
2023-04-21T11:52:24.845Z,85413.22
2023-04-21T11:54:59.408Z,85427.25
2023-04-21T11:57:28.282Z,85362.28
2023-04-21T11:59:58.518Z,85420.22
2023-04-21T12:02:28.280Z,85394.22
2023-04-21T12:05:14.625Z,85416.00
2023-04-21T12:07:44.844Z,85411.44
2023-04-21T12:10:17.760Z,85414.97
2023-04-21T12:12:47.528Z,85410.06
2023-04-21T12:15:23.418Z,85420.78
2023-04-21T12:17:55.532Z,85411.59
2023-04-21T12:20:24.587Z,85429.91
2023-04-21T12:22:54.445Z,85376.88
2023-04-21T12:25:21.362Z,85407.00
2023-04-21T12:27:52.578Z,85362.41
2023-04-21T12:30:20.972Z,85420.78
2023-04-21T12:32:48.767Z,85414.81
2023-04-21T12:35:17.309Z,85355.97
2023-04-21T12:37:45.273Z,85411.66
2023-04-21T12:40:12.427Z,85413.88
2023-04-21T12:42:39.559Z,85419.03
2023-04-21T12:45:07.284Z,85343.03
2023-04-21T12:47:35.418Z,85357.63
2023-04-21T12:50:27.859Z,85418.28
2023-04-21T12:52:55.466Z,85303.75
2023-04-21T12:55:23.405Z,85413.88
2023-04-21T12:57:51.081Z,85320.78
2023-04-21T13:00:18.116Z,85409.00
2023-04-21T13:02:45.368Z,85372.75
2023-04-21T13:05:13.479Z,85362.69
2023-04-21T13:07:41.590Z,85371.75
2023-04-21T13:10:09.084Z,85381.75
2023-04-21T13:12:36.269Z,85397.16
2023-04-21T13:15:04.160Z,85400.41
2023-04-21T13:17:32.894Z,85366.19
2023-04-21T13:20:00.298Z,85387.13
2023-04-21T13:22:27.357Z,85395.31
2023-04-21T13:24:57.026Z,85401.44
2023-04-21T13:30:18.039Z,85349.22
2023-04-21T13:32:45.280Z,85339.91
2023-04-21T13:35:12.611Z,85253.53
2023-04-21T13:37:40.566Z,85277.03
2023-04-21T13:40:10.299Z,85400.16
2023-04-21T13:42:38.022Z,85386.25
2023-04-21T13:45:05.928Z,85402.28
2023-04-21T13:47:34.049Z,85402.34
2023-04-21T13:50:01.456Z,85398.50
2023-04-21T13:52:28.604Z,85393.41
2023-04-21T13:54:55.802Z,85347.16
2023-04-21T13:57:31.861Z,85371.69
2023-04-21T13:59:59.055Z,85405.53
2023-04-21T14:02:26.429Z,85398.50
2023-04-21T14:04:54.627Z,85364.41
2023-04-21T14:07:24.000Z,85345.88
2023-04-21T14:09:52.831Z,85337.41
2023-04-21T14:12:19.897Z,85405.34
2023-04-21T14:14:47.495Z,85304.16
2023-04-21T14:17:16.846Z,85419.34
2023-04-21T14:19:43.991Z,85404.09
2023-04-21T14:22:11.044Z,85258.78
2023-04-21T14:24:37.967Z,85412.84
2023-04-21T14:27:04.959Z,85395.53
2023-04-21T14:29:32.435Z,85396.44
2023-04-21T14:31:59.636Z,85403.06
2023-04-21T14:34:26.725Z,85380.75
2023-04-21T14:36:53.840Z,85358.19
2023-04-21T14:39:20.945Z,85396.56
2023-04-21T14:41:48.408Z,85383.75
2023-04-21T14:44:16.349Z,85363.47
2023-04-21T14:46:48.092Z,85293.91
2023-04-21T14:49:21.581Z,85384.34
2023-04-21T14:51:49.952Z,85397.50
2023-04-21T14:54:17.069Z,85374.09
2023-04-21T14:56:44.092Z,85334.69
2023-04-21T14:59:11.261Z,85393.50
2023-04-21T15:01:38.404Z,85322.06
2023-04-21T15:04:06.626Z,85399.09
2023-04-21T15:06:33.923Z,85360.94
2023-04-21T15:09:01.018Z,85363.97
2023-04-21T15:11:28.106Z,85406.50
2023-04-21T15:13:55.133Z,85373.06
2023-04-21T15:16:22.187Z,85379.22
2023-04-21T15:18:49.284Z,85386.44
2023-04-21T15:21:16.357Z,85378.25
2023-04-21T15:23:43.435Z,85378.47
2023-04-21T15:26:10.981Z,85371.91
2023-04-21T15:28:39.730Z,85354.03
2023-04-21T15:31:09.839Z,85294.34
2023-04-21T15:33:37.070Z,85414.06
2023-04-21T15:36:04.112Z,85405.22
2023-04-21T15:38:31.100Z,85403.50
2023-04-21T15:41:01.749Z,85354.41
2023-04-21T15:43:29.470Z,85375.59
2023-04-21T15:45:56.428Z,85395.53
2023-04-21T15:48:23.653Z,85412.94
2023-04-21T15:50:50.819Z,85403.97
2023-04-21T15:53:19.800Z,85346.78
2023-04-21T15:55:47.146Z,85399.53
2023-04-21T15:58:14.341Z,85416.00
2023-04-21T16:00:46.117Z,85404.50
2023-04-21T16:03:13.630Z,85425.28
2023-04-21T16:05:41.293Z,85415.16
2023-04-21T16:08:08.636Z,85408.50
2023-04-21T16:10:35.811Z,85431.88
2023-04-21T16:13:02.773Z,85431.31
2023-04-21T16:15:30.109Z,85382.44
2023-04-21T16:17:57.515Z,85429.88
2023-04-21T16:20:25.029Z,85419.97
2023-04-21T16:22:52.202Z,85373.00
2023-04-21T16:25:20.287Z,85424.53
2023-04-21T16:27:47.748Z,85430.22
2023-04-21T16:30:14.889Z,85398.81
2023-04-21T16:32:41.876Z,85438.63
2023-04-21T16:35:09.406Z,85445.94
2023-04-21T16:37:38.339Z,85415.44
2023-04-21T16:40:06.524Z,85357.97
2023-04-21T16:42:34.160Z,85434.66
2023-04-21T16:45:03.606Z,85439.06
2023-04-21T16:47:32.790Z,85428.09
2023-04-21T16:50:00.106Z,85426.56
2023-04-21T16:52:27.548Z,85450.78
2023-04-21T16:54:54.708Z,85459.28
2023-04-21T16:57:24.704Z,85451.31
2023-04-21T16:59:52.306Z,85456.66
2023-04-21T17:02:19.854Z,85462.81
2023-04-21T17:04:47.252Z,85464.34
2023-04-21T17:07:14.827Z,85469.72
2023-04-21T17:09:42.109Z,85400.13
2023-04-21T17:12:09.662Z,85426.09
2023-04-21T17:14:37.001Z,85463.09
2023-04-21T17:17:04.385Z,85465.53
2023-04-21T17:19:31.613Z,85448.16
2023-04-21T17:21:58.715Z,85427.22
2023-04-21T17:24:26.141Z,85430.06
2023-04-21T17:26:53.179Z,85432.94
2023-04-21T17:29:20.642Z,85480.69
2023-04-21T17:31:47.669Z,85436.41
2023-04-21T17:34:14.636Z,85458.81
2023-04-21T17:36:41.900Z,85435.94
2023-04-21T17:39:08.887Z,85475.56
2023-04-21T17:41:35.819Z,85480.66
2023-04-21T17:44:02.929Z,85417.91
2023-04-21T17:46:30.549Z,85488.81
2023-04-21T17:48:57.553Z,85488.81
2023-04-21T17:51:24.854Z,85453.63
2023-04-21T17:53:51.881Z,85470.41
2023-04-21T17:56:19.039Z,85499.00
2023-04-21T17:58:47.006Z,85501.91
2023-04-21T18:01:14.052Z,85487.47
2023-04-21T18:03:44.092Z,85459.91
2023-04-21T18:06:11.801Z,85466.50
2023-04-21T18:08:38.853Z,85458.38
2023-04-21T18:11:06.384Z,85402.53
2023-04-21T18:13:33.463Z,85510.25
2023-04-21T18:16:00.712Z,85485.84
2023-04-21T18:18:28.961Z,85502.81
2023-04-21T18:20:56.027Z,85432.06
2023-04-21T18:23:22.952Z,85509.75
2023-04-21T18:25:50.024Z,85511.03
2023-04-21T18:28:17.271Z,85469.72
2023-04-21T18:30:44.321Z,85492.13
2023-04-21T18:33:11.867Z,85505.56
2023-04-21T18:35:39.145Z,85473.69
2023-04-21T18:38:08.391Z,85499.50
2023-04-21T18:40:37.589Z,85467.84
2023-04-21T18:43:05.498Z,85471.22
2023-04-21T18:45:33.093Z,85506.84
2023-04-21T18:48:00.129Z,85495.53
2023-04-21T18:50:30.296Z,85409.97
2023-04-21T18:52:58.240Z,85497.34
2023-04-21T18:55:25.463Z,85495.31
2023-04-21T18:57:52.748Z,85522.78
2023-04-21T19:00:19.919Z,85451.94
2023-04-21T19:02:49.060Z,85507.63
2023-04-21T19:05:16.541Z,85540.34
2023-04-21T19:07:43.677Z,85546.72
2023-04-21T19:10:11.102Z,85541.09
2023-04-21T19:12:38.665Z,85517.94
2023-04-21T19:15:06.310Z,85542.72
2023-04-21T19:17:33.281Z,85492.28
2023-04-21T19:20:00.280Z,85484.31
2023-04-21T19:22:36.047Z,85494.38
2023-04-21T19:25:03.779Z,85544.34
2023-04-21T19:27:31.108Z,85521.84
2023-04-21T19:29:58.981Z,85497.25
2023-04-21T19:32:26.377Z,85548.44
2023-04-21T19:34:53.560Z,85501.78
2023-04-21T19:37:21.165Z,85537.22
2023-04-21T19:39:48.144Z,85546.91
2023-04-21T19:42:15.159Z,85508.69
2023-04-21T19:44:42.201Z,85513.09
2023-04-21T19:47:09.138Z,85488.16
2023-04-21T19:49:36.241Z,85541.75
2023-04-21T19:52:03.279Z,85494.47
2023-04-21T19:54:32.386Z,85547.69
2023-04-21T19:56:59.464Z,85497.34
2023-04-21T19:59:27.271Z,85480.38
2023-04-21T20:01:54.505Z,85498.97
2023-04-21T20:04:21.832Z,85500.16
2023-04-21T20:06:49.029Z,85502.41
2023-04-21T20:09:16.191Z,85541.47
2023-04-21T20:11:43.376Z,85499.84
2023-04-21T20:14:11.238Z,85520.22
2023-04-21T20:16:39.714Z,85490.88
2023-04-21T20:19:07.184Z,85535.38
2023-04-21T20:21:34.208Z,85537.56
2023-04-21T20:24:02.519Z,85517.16
2023-04-21T20:26:29.687Z,85511.75
2023-04-21T20:28:56.867Z,85508.78
2023-04-21T20:31:25.728Z,85534.75
2023-04-21T20:33:52.840Z,85534.84
2023-04-21T20:36:19.920Z,85538.97
2023-04-21T20:38:49.659Z,85502.16
2023-04-21T20:41:16.683Z,85451.81
2023-04-21T20:43:44.105Z,85523.53
2023-04-21T20:46:11.799Z,85531.00
2023-04-21T20:48:38.900Z,85540.56
2023-04-21T20:51:06.213Z,85538.59
2023-04-21T20:53:33.441Z,85536.56
2023-04-21T20:56:00.483Z,85514.81
2023-04-21T20:58:27.408Z,85539.50
2023-04-21T21:00:54.419Z,85519.72
2023-04-21T21:03:22.327Z,85541.00
2023-04-21T21:05:49.748Z,85501.66
2023-04-21T21:08:17.126Z,85488.16
2023-04-21T21:10:44.136Z,85545.63
2023-04-21T21:13:11.344Z,85531.44
2023-04-21T21:15:38.409Z,85561.41
2023-04-21T21:18:05.587Z,85562.66
2023-04-21T21:20:32.551Z,85562.13
2023-04-21T21:22:59.561Z,85549.22
2023-04-21T21:25:26.982Z,85532.22
2023-04-21T21:27:54.080Z,85563.63
2023-04-21T21:30:21.421Z,85544.53
2023-04-21T21:32:49.565Z,85567.84
2023-04-21T21:35:20.006Z,85562.50
2023-04-21T21:37:47.264Z,85528.88
2023-04-21T21:40:14.437Z,85521.44
2023-04-21T21:42:41.999Z,85566.47
2023-04-21T21:45:11.205Z,85562.34
2023-04-21T21:47:42.949Z,85566.53
2023-04-21T21:50:12.710Z,85524.78
2023-04-21T21:52:39.787Z,85460.09
2023-04-21T21:55:07.374Z,85475.25
2023-04-21T21:57:34.790Z,85480.72
2023-04-21T22:00:02.288Z,85399.63
2023-04-21T22:02:32.127Z,85561.50
2023-04-21T22:04:59.781Z,85569.59
2023-04-21T22:07:26.975Z,85572.41
2023-04-21T22:12:46.033Z,85573.88
2023-04-21T22:15:13.302Z,85542.69
2023-04-21T22:17:40.916Z,85535.91
2023-04-21T22:20:08.776Z,85532.97
2023-04-21T22:22:36.374Z,85572.50
2023-04-21T22:25:06.228Z,85571.81
2023-04-21T22:27:33.998Z,85537.69
2023-04-21T22:30:02.642Z,85519.19
2023-04-21T22:32:32.314Z,85569.91
2023-04-21T22:34:59.991Z,85565.03
2023-04-21T22:37:27.645Z,85533.00
2023-04-21T22:39:57.860Z,85573.97
2023-04-21T22:42:27.382Z,85554.81
2023-04-21T22:44:54.526Z,85531.88
2023-04-21T22:47:21.798Z,85582.44
2023-04-21T22:49:56.141Z,85554.81
2023-04-21T22:52:23.201Z,85570.63
2023-04-21T22:54:50.197Z,85572.06
2023-04-21T22:57:17.277Z,85581.69
2023-04-21T22:59:44.404Z,85569.88
2023-04-21T23:02:11.700Z,85551.22
2023-04-21T23:04:38.748Z,85558.63
2023-04-21T23:07:05.765Z,85563.38
2023-04-21T23:09:32.801Z,85534.63
2023-04-21T23:11:59.905Z,85562.00
2023-04-21T23:14:26.960Z,85556.47
2023-04-21T23:16:54.010Z,85515.97
2023-04-21T23:19:21.047Z,85542.53
2023-04-21T23:21:48.263Z,85511.19
2023-04-21T23:24:15.270Z,85554.88
2023-04-21T23:26:42.283Z,85541.94
2023-04-21T23:29:09.263Z,85518.69
2023-04-21T23:31:36.359Z,85537.09
2023-04-21T23:34:03.269Z,85486.53
2023-04-21T23:36:30.215Z,85521.22
2023-04-21T23:38:57.176Z,85526.81
2023-04-21T23:41:24.229Z,85507.16
2023-04-21T23:43:51.322Z,85514.03
2023-04-21T23:46:18.383Z,85524.91
2023-04-21T23:48:45.539Z,85523.84
2023-04-21T23:51:12.748Z,85500.03
2023-04-21T23:53:39.757Z,85504.06
2023-04-21T23:56:07.046Z,85538.94
2023-04-21T23:58:34.019Z,85513.44
